createdAt,value
2018-04-15T00:00:21.118Z,0.00
2018-04-15T00:01:26.228Z,0.00
2018-04-15T00:02:21.118Z,0.00
2018-04-15T00:03:21.115Z,0.00
2018-04-15T00:04:21.115Z,0.00
2018-04-15T00:05:21.562Z,0.00
2018-04-15T00:06:21.119Z,0.00
2018-04-15T00:07:39.227Z,0.00
2018-04-15T00:08:21.540Z,0.00
2018-04-15T00:09:21.108Z,0.00
2018-04-15T00:10:21.104Z,0.00
2018-04-15T00:11:21.104Z,0.00
2018-04-15T00:12:23.190Z,0.00
2018-04-15T00:13:21.100Z,0.00
2018-04-15T00:14:21.100Z,0.00
2018-04-15T00:15:21.502Z,0.00
2018-04-15T00:16:21.097Z,0.00
2018-04-15T00:17:28.741Z,0.00
2018-04-15T00:18:21.157Z,0.00
2018-04-15T00:19:21.088Z,0.00
2018-04-15T00:20:21.112Z,0.00
2018-04-15T00:21:22.738Z,0.00
2018-04-15T00:22:21.090Z,0.00
2018-04-15T00:23:21.089Z,0.00
2018-04-15T00:24:21.088Z,0.00
2018-04-15T00:25:21.082Z,0.00
2018-04-15T00:26:21.082Z,0.00
2018-04-15T00:27:42.119Z,0.00
2018-04-15T00:28:21.084Z,0.00
2018-04-15T00:29:21.080Z,0.00
2018-04-15T00:30:21.075Z,0.00
2018-04-15T00:31:21.079Z,0.00
2018-04-15T00:32:37.740Z,0.00
2018-04-15T00:33:21.071Z,0.00
2018-04-15T00:34:21.073Z,0.00
2018-04-15T00:35:21.066Z,0.00
2018-04-15T00:36:21.070Z,0.00
2018-04-15T00:37:45.250Z,0.00
2018-04-15T00:38:21.061Z,0.00
2018-04-15T00:39:21.065Z,0.00
2018-04-15T00:40:21.060Z,0.00
2018-04-15T00:41:21.744Z,0.00
2018-04-15T00:42:21.060Z,0.00
2018-04-15T00:43:21.049Z,0.00
2018-04-15T00:44:21.057Z,0.00
2018-04-15T00:45:21.047Z,0.00
2018-04-15T00:47:52.724Z,0.00
2018-04-15T00:48:52.672Z,0.00
2018-04-15T00:49:52.671Z,0.00
2018-04-15T00:50:52.674Z,0.00
2018-04-15T00:52:18.811Z,0.00
2018-04-15T00:52:52.667Z,0.00
2018-04-15T00:53:52.663Z,0.00
2018-04-15T00:54:52.663Z,0.00
2018-04-15T00:56:21.302Z,0.00
2018-04-15T00:56:52.660Z,0.00
2018-04-15T00:57:52.658Z,0.00
2018-04-15T00:58:52.652Z,0.00
2018-04-15T00:59:52.657Z,0.00
2018-04-15T01:00:52.702Z,0.00
2018-04-15T01:01:52.653Z,0.00
2018-04-15T01:02:52.654Z,0.00
2018-04-15T01:03:52.649Z,0.00
2018-04-15T01:04:52.651Z,0.00
2018-04-15T01:06:00.307Z,0.00
2018-04-15T01:06:52.642Z,0.00
2018-04-15T01:07:52.702Z,0.00
2018-04-15T01:08:52.641Z,0.00
2018-04-15T01:09:52.640Z,0.00
2018-04-15T01:10:52.804Z,0.00
2018-04-15T01:11:52.635Z,0.00
2018-04-15T01:12:52.637Z,0.00
2018-04-15T01:13:52.635Z,0.00
2018-04-15T01:14:52.627Z,0.00
2018-04-15T01:15:52.671Z,0.00
2018-04-15T01:16:52.627Z,0.00
2018-04-15T01:17:52.628Z,0.00
2018-04-15T01:18:52.619Z,0.00
2018-04-15T01:19:52.623Z,0.00
2018-04-15T01:21:03.307Z,0.00
2018-04-15T01:21:52.620Z,0.00
2018-04-15T01:22:52.628Z,0.00
2018-04-15T01:23:52.616Z,0.00
2018-04-15T01:24:52.619Z,0.00
2018-04-15T01:25:57.813Z,0.00
2018-04-15T01:26:52.611Z,0.00
2018-04-15T01:27:52.630Z,0.00
2018-04-15T01:28:52.609Z,0.00
2018-04-15T01:29:52.609Z,0.00
2018-04-15T01:30:52.610Z,0.00
2018-04-15T01:31:53.314Z,0.00
2018-04-15T01:32:52.600Z,0.00
2018-04-15T01:33:52.593Z,0.00
2018-04-15T01:34:52.600Z,0.00
2018-04-15T01:35:53.520Z,0.00
2018-04-15T01:38:54.860Z,0.00
2018-04-15T01:39:24.228Z,0.00
2018-04-15T01:40:24.224Z,0.00
2018-04-15T01:43:06.484Z,0.00
2018-04-15T01:43:55.797Z,0.00
2018-04-15T01:44:55.790Z,0.00
2018-04-15T01:45:55.796Z,0.00
2018-04-15T01:47:30.986Z,0.00
2018-04-15T01:47:55.785Z,0.00
2018-04-15T01:48:56.738Z,0.00
2018-04-15T01:49:55.785Z,0.00
2018-04-15T01:50:55.788Z,0.00
2018-04-15T01:52:16.978Z,0.00
2018-04-15T01:52:55.776Z,0.00
2018-04-15T01:53:55.773Z,0.00
2018-04-15T01:54:55.773Z,0.00
2018-04-15T01:55:56.477Z,0.00
2018-04-15T01:57:00.974Z,0.00
2018-04-15T01:57:55.766Z,0.00
2018-04-15T01:58:55.765Z,0.00
2018-04-15T01:59:55.761Z,0.00
2018-04-15T02:00:55.757Z,0.00
2018-04-15T02:01:58.974Z,0.00
2018-04-15T02:02:55.754Z,0.00
2018-04-15T02:03:55.756Z,0.00
2018-04-15T02:04:55.805Z,0.00
2018-04-15T02:05:55.751Z,0.00
2018-04-15T02:07:19.974Z,0.00
2018-04-15T02:07:56.664Z,0.00
2018-04-15T02:09:01.021Z,0.00
2018-04-15T02:09:55.738Z,0.00
2018-04-15T02:10:57.160Z,0.00
2018-04-15T02:11:58.235Z,0.00
2018-04-15T02:13:00.280Z,0.00
2018-04-15T02:13:58.711Z,0.00
2018-04-15T02:14:58.917Z,0.00
2018-04-15T02:15:59.710Z,0.00
2018-04-15T02:17:30.976Z,0.00
2018-04-15T02:17:57.017Z,0.00
2018-04-15T02:18:55.944Z,0.00
2018-04-15T02:19:58.265Z,0.00
2018-04-15T02:20:56.368Z,0.00
2018-04-15T02:21:58.768Z,0.00
2018-04-15T02:22:57.796Z,0.00
2018-04-15T02:23:57.765Z,0.00
2018-04-15T02:24:58.831Z,0.00
2018-04-15T02:25:55.836Z,0.00
2018-04-15T02:27:02.275Z,0.00
2018-04-15T02:28:00.271Z,0.00
2018-04-15T02:29:00.119Z,0.00
2018-04-15T02:29:56.400Z,0.00
2018-04-15T02:30:57.768Z,0.00
2018-04-15T02:31:57.271Z,0.00
2018-04-15T02:32:55.699Z,0.00
2018-04-15T02:34:11.044Z,0.00
2018-04-15T02:34:55.693Z,0.00
2018-04-15T02:35:56.956Z,0.00
2018-04-15T02:36:56.498Z,0.00
2018-04-15T02:37:58.719Z,0.00
2018-04-15T02:40:34.752Z,0.00
2018-04-15T02:41:31.720Z,0.00
2018-04-15T02:42:29.210Z,0.00
2018-04-15T02:43:28.936Z,0.00
2018-04-15T02:44:30.440Z,0.00
2018-04-15T02:45:30.738Z,0.00
2018-04-15T02:46:27.413Z,0.00
2018-04-15T02:47:28.547Z,0.00
2018-04-15T02:48:29.445Z,0.00
2018-04-15T02:49:27.503Z,0.00
2018-04-15T02:50:30.114Z,0.00
2018-04-15T02:51:28.727Z,0.00
2018-04-15T02:52:27.832Z,0.00
2018-04-15T02:53:53.631Z,0.00
2018-04-15T02:54:28.477Z,0.00
2018-04-15T02:55:27.491Z,0.00
2018-04-15T02:56:29.280Z,0.00
2018-04-15T02:57:27.945Z,0.00
2018-04-15T02:58:27.297Z,0.00
2018-04-15T02:59:41.430Z,0.00
2018-04-15T03:00:27.359Z,0.00
2018-04-15T03:01:27.282Z,0.00
2018-04-15T03:02:27.289Z,0.00
2018-04-15T03:03:27.682Z,0.00
2018-04-15T03:04:37.922Z,0.00
2018-04-15T03:05:27.270Z,0.00
2018-04-15T03:06:27.308Z,0.00
2018-04-15T03:07:27.305Z,0.00
2018-04-15T03:08:27.264Z,0.00
2018-04-15T03:09:27.930Z,0.00
2018-04-15T03:10:27.259Z,0.00
2018-04-15T03:11:27.254Z,0.00
2018-04-15T03:12:27.247Z,0.00
2018-04-15T03:13:27.251Z,0.00
2018-04-15T03:14:27.246Z,0.00
2018-04-15T03:15:53.422Z,0.00
2018-04-15T03:16:27.246Z,0.00
2018-04-15T03:17:27.238Z,0.00
2018-04-15T03:18:27.236Z,0.00
2018-04-15T03:19:27.239Z,0.00
2018-04-15T03:20:32.531Z,0.00
2018-04-15T03:21:27.257Z,0.00
2018-04-15T03:22:27.220Z,0.00
2018-04-15T03:23:27.223Z,0.00
2018-04-15T03:24:27.220Z,0.00
2018-04-15T03:25:32.426Z,0.00
2018-04-15T03:26:27.216Z,0.00
2018-04-15T03:27:27.456Z,0.00
2018-04-15T03:28:27.208Z,0.00
2018-04-15T03:29:27.204Z,0.00
2018-04-15T03:31:59.955Z,0.00
2018-04-15T03:32:58.758Z,0.00
2018-04-15T03:33:58.753Z,0.00
2018-04-15T03:34:58.750Z,0.00
2018-04-15T03:36:03.951Z,0.00
2018-04-15T03:36:58.744Z,0.00
2018-04-15T03:37:58.739Z,0.00
2018-04-15T03:38:58.739Z,0.00
2018-04-15T03:39:58.728Z,0.00
2018-04-15T03:42:30.400Z,0.00
2018-04-15T03:43:30.360Z,0.00
2018-04-15T03:44:30.359Z,0.00
2018-04-15T03:45:40.984Z,0.00
2018-04-15T03:46:30.347Z,0.00
2018-04-15T03:47:30.348Z,4.00
2018-04-15T03:48:30.349Z,4.00
2018-04-15T03:49:30.339Z,4.00
2018-04-15T03:52:09.593Z,4.00
2018-04-15T03:53:01.957Z,8.00
2018-04-15T03:54:02.092Z,8.00
2018-04-15T03:55:28.096Z,8.00
2018-04-15T03:56:01.978Z,12.00
2018-04-15T03:57:01.945Z,12.00
2018-04-15T03:58:01.942Z,16.00
2018-04-15T03:59:01.942Z,16.00
2018-04-15T04:00:24.595Z,20.00
2018-04-15T04:01:01.938Z,24.00
2018-04-15T04:02:01.936Z,32.00
2018-04-15T04:03:01.936Z,40.00
2018-04-15T04:04:01.927Z,44.00
2018-04-15T04:05:09.593Z,52.00
2018-04-15T04:06:01.917Z,60.00
2018-04-15T04:07:02.384Z,72.00
2018-04-15T04:08:02.250Z,84.00
2018-04-15T04:09:01.913Z,96.00
2018-04-15T04:10:02.083Z,104.00
2018-04-15T04:11:01.907Z,120.00
2018-04-15T04:12:02.466Z,136.00
2018-04-15T04:13:01.898Z,152.00
2018-04-15T04:14:01.945Z,168.00
2018-04-15T04:15:01.947Z,188.00
2018-04-15T04:16:01.889Z,208.00
2018-04-15T04:17:01.889Z,228.00
2018-04-15T04:18:01.895Z,252.00
2018-04-15T04:19:01.888Z,276.00
2018-04-15T04:20:03.599Z,304.00
2018-04-15T04:21:01.879Z,332.00
2018-04-15T04:22:01.879Z,364.00
2018-04-15T04:23:01.870Z,388.00
2018-04-15T04:24:01.871Z,424.00
2018-04-15T04:25:02.086Z,452.00
2018-04-15T04:26:01.864Z,484.00
2018-04-15T04:27:01.864Z,520.00
2018-04-15T04:28:01.858Z,548.00
2018-04-15T04:29:01.855Z,592.00
2018-04-15T04:30:05.088Z,632.00
2018-04-15T04:31:01.854Z,676.00
2018-04-15T04:32:01.915Z,728.00
2018-04-15T04:33:01.855Z,784.00
2018-04-15T04:34:01.841Z,844.00
2018-04-15T04:35:02.591Z,908.00
2018-04-15T04:36:02.217Z,968.00
2018-04-15T04:37:01.835Z,1036.00
2018-04-15T04:38:01.830Z,1108.00
2018-04-15T04:39:01.825Z,1180.00
2018-04-15T04:40:01.865Z,1264.00
2018-04-15T04:41:01.820Z,1364.00
2018-04-15T04:42:01.814Z,1472.00
2018-04-15T04:43:01.815Z,1592.00
2018-04-15T04:44:01.814Z,1716.00
2018-04-15T04:45:02.611Z,1836.00
2018-04-15T04:46:01.804Z,1948.00
2018-04-15T04:47:01.811Z,2052.00
2018-04-15T04:48:01.807Z,2148.00
2018-04-15T04:49:01.795Z,2228.00
2018-04-15T04:50:07.085Z,2304.00
2018-04-15T04:51:01.793Z,2380.00
2018-04-15T04:52:01.789Z,2456.00
2018-04-15T04:53:02.416Z,2528.00
2018-04-15T04:54:01.789Z,2612.00
2018-04-15T04:55:22.825Z,2724.00
2018-04-15T04:56:01.777Z,2864.00
2018-04-15T04:57:01.773Z,2968.00
2018-04-15T04:58:02.448Z,3080.00
2018-04-15T04:59:01.769Z,3180.00
2018-04-15T05:00:30.596Z,3252.00
2018-04-15T05:01:02.337Z,3328.00
2018-04-15T05:02:01.765Z,3416.00
2018-04-15T05:03:01.757Z,3540.00
2018-04-15T05:04:01.755Z,3704.00
2018-04-15T05:05:01.799Z,3892.00
2018-04-15T05:06:01.750Z,4116.00
2018-04-15T05:07:01.750Z,4364.00
2018-04-15T05:08:01.746Z,4620.00
2018-04-15T05:09:01.744Z,4836.00
2018-04-15T05:10:09.580Z,4996.00
2018-04-15T05:11:01.738Z,5136.00
2018-04-15T05:12:01.735Z,5268.00
2018-04-15T05:13:01.733Z,5444.00
2018-04-15T05:14:01.729Z,5612.00
2018-04-15T05:15:28.089Z,5688.00
2018-04-15T05:16:01.731Z,5724.00
2018-04-15T05:17:01.749Z,5836.00
2018-04-15T05:18:01.723Z,5912.00
2018-04-15T05:19:01.722Z,6048.00
2018-04-15T05:20:23.590Z,6156.00
2018-04-15T05:21:01.715Z,6288.00
2018-04-15T05:22:01.713Z,6228.00
2018-04-15T05:23:01.711Z,6228.00
2018-04-15T05:24:01.705Z,6316.00
2018-04-15T05:25:23.448Z,6408.00
2018-04-15T05:26:02.478Z,6388.00
2018-04-15T05:27:01.702Z,6468.00
2018-04-15T05:28:01.702Z,6564.00
2018-04-15T05:29:01.698Z,6752.00
2018-04-15T05:30:03.588Z,6972.00
2018-04-15T05:31:01.693Z,6932.00
2018-04-15T05:32:01.698Z,6972.00
2018-04-15T05:33:01.689Z,7176.00
2018-04-15T05:34:01.691Z,7456.00
2018-04-15T05:35:07.100Z,7524.00
2018-04-15T05:36:01.688Z,7680.00
2018-04-15T05:37:01.686Z,7948.00
2018-04-15T05:38:01.679Z,8208.00
2018-04-15T05:39:01.688Z,8424.00
2018-04-15T05:40:20.114Z,8572.00
2018-04-15T05:41:01.683Z,8696.00
2018-04-15T05:42:01.678Z,8684.00
2018-04-15T05:43:01.681Z,8696.00
2018-04-15T05:44:01.675Z,8700.00
2018-04-15T05:45:02.415Z,8652.00
2018-04-15T05:46:02.101Z,8552.00
2018-04-15T05:47:01.675Z,8540.00
2018-04-15T05:48:01.671Z,8468.00
2018-04-15T05:49:01.671Z,8392.00
2018-04-15T05:50:01.670Z,8392.00
2018-04-15T05:51:02.107Z,8468.00
2018-04-15T05:52:01.665Z,8492.00
2018-04-15T05:53:01.664Z,8596.00
2018-04-15T05:54:01.668Z,8740.00
2018-04-15T05:55:01.668Z,8840.00
2018-04-15T05:56:16.103Z,8900.00
2018-04-15T05:57:01.663Z,9108.00
2018-04-15T05:58:01.663Z,9292.00
2018-04-15T05:59:01.661Z,9396.00
2018-04-15T06:00:01.665Z,9464.00
2018-04-15T06:01:20.116Z,9432.00
2018-04-15T06:02:01.663Z,9344.00
2018-04-15T06:03:01.665Z,9260.00
2018-04-15T06:04:01.665Z,9188.00
2018-04-15T06:05:01.656Z,9148.00
2018-04-15T06:06:02.588Z,9172.00
2018-04-15T06:07:01.659Z,9208.00
2018-04-15T06:08:01.659Z,9252.00
2018-04-15T06:09:01.660Z,9260.00
2018-04-15T06:10:01.656Z,9312.00
2018-04-15T06:11:02.588Z,9452.00
2018-04-15T06:12:01.741Z,9560.00
2018-04-15T06:13:01.660Z,9672.00
2018-04-15T06:14:01.667Z,9768.00
2018-04-15T06:15:01.668Z,9928.00
2018-04-15T06:16:22.716Z,10132.00
2018-04-15T06:17:01.660Z,10284.00
2018-04-15T06:18:01.660Z,10432.00
2018-04-15T06:19:01.662Z,10568.00
2018-04-15T06:20:02.344Z,10816.00
2018-04-15T06:21:01.661Z,10864.00
2018-04-15T06:22:02.169Z,10976.00
2018-04-15T06:23:01.664Z,11080.00
2018-04-15T06:24:01.662Z,11132.00
2018-04-15T06:25:01.666Z,11228.00
2018-04-15T06:26:01.666Z,11096.00
2018-04-15T06:27:01.781Z,11112.00
2018-04-15T06:28:01.665Z,11128.00
2018-04-15T06:29:01.662Z,11224.00
2018-04-15T06:30:01.667Z,11396.00
2018-04-15T06:31:01.662Z,11600.00
2018-04-15T06:32:02.212Z,11864.00
2018-04-15T06:33:01.717Z,12164.00
2018-04-15T06:34:01.668Z,12440.00
2018-04-15T06:35:01.671Z,12652.00
2018-04-15T06:36:01.668Z,12688.00
2018-04-15T06:37:02.108Z,12632.00
2018-04-15T06:38:02.216Z,12480.00
2018-04-15T06:39:01.676Z,12388.00
2018-04-15T06:40:01.676Z,12264.00
2018-04-15T06:41:01.676Z,12104.00
2018-04-15T06:42:01.727Z,12140.00
2018-04-15T06:43:02.617Z,12356.00
2018-04-15T06:44:01.681Z,12684.00
2018-04-15T06:45:01.683Z,13308.00
2018-04-15T06:46:01.682Z,13672.00
2018-04-15T06:47:05.091Z,13084.00
2018-04-15T06:48:01.685Z,12584.00
2018-04-15T06:49:01.681Z,12548.00
2018-04-15T06:50:01.690Z,12260.00
2018-04-15T06:51:01.689Z,12356.00
2018-04-15T06:52:01.857Z,12164.00
2018-04-15T06:53:01.697Z,11996.00
2018-04-15T06:54:01.697Z,12484.00
2018-04-15T06:55:01.701Z,12840.00
2018-04-15T06:56:01.699Z,13712.00
2018-04-15T06:57:16.138Z,13804.00
2018-04-15T06:58:01.707Z,14608.00
2018-04-15T06:59:01.702Z,16304.00
2018-04-15T07:00:02.146Z,16312.00
2018-04-15T07:01:03.594Z,15400.00
2018-04-15T07:02:01.716Z,15452.00
2018-04-15T07:03:01.713Z,18304.00
2018-04-15T07:04:01.713Z,19616.00
2018-04-15T07:05:01.715Z,19296.00
2018-04-15T07:06:07.113Z,16104.00
2018-04-15T07:07:01.726Z,14124.00
2018-04-15T07:08:01.731Z,15364.00
2018-04-15T07:09:01.729Z,16980.00
2018-04-15T07:10:01.738Z,18848.00
2018-04-15T07:11:02.132Z,20448.00
2018-04-15T07:12:01.739Z,21024.00
2018-04-15T07:13:01.754Z,21600.00
2018-04-15T07:14:01.752Z,20256.00
2018-04-15T07:15:01.764Z,19456.00
2018-04-15T07:16:02.091Z,15192.00
2018-04-15T07:17:01.764Z,14996.00
2018-04-15T07:18:01.769Z,18112.00
2018-04-15T07:19:01.774Z,19904.00
2018-04-15T07:20:01.780Z,19840.00
2018-04-15T07:21:02.595Z,19808.00
2018-04-15T07:22:01.784Z,22112.00
2018-04-15T07:23:01.789Z,25152.00
2018-04-15T07:24:01.793Z,24544.00
2018-04-15T07:25:01.796Z,22944.00
2018-04-15T07:26:03.595Z,21312.00
2018-04-15T07:27:01.808Z,22048.00
2018-04-15T07:28:01.815Z,21568.00
2018-04-15T07:29:01.821Z,21152.00
2018-04-15T07:30:01.826Z,21888.00
2018-04-15T07:31:03.598Z,23232.00
2018-04-15T07:32:01.831Z,20224.00
2018-04-15T07:33:01.844Z,21184.00
2018-04-15T07:34:01.844Z,20992.00
2018-04-15T07:35:01.847Z,23776.00
2018-04-15T07:36:23.134Z,24832.00
2018-04-15T07:37:01.857Z,28736.00
2018-04-15T07:38:01.862Z,28928.00
2018-04-15T07:39:02.268Z,28384.00
2018-04-15T07:40:01.882Z,27808.00
2018-04-15T07:42:54.452Z,28224.00
2018-04-15T07:43:33.457Z,27008.00
2018-04-15T07:44:33.466Z,24896.00
2018-04-15T07:45:33.478Z,25408.00
2018-04-15T07:46:41.149Z,24544.00
2018-04-15T07:47:33.485Z,23616.00
2018-04-15T07:48:33.490Z,23712.00
2018-04-15T07:49:33.974Z,26496.00
2018-04-15T07:50:33.508Z,26624.00
2018-04-15T07:51:36.649Z,24704.00
2018-04-15T07:52:33.517Z,25568.00
2018-04-15T07:53:33.523Z,26304.00
2018-04-15T07:54:33.530Z,25824.00
2018-04-15T07:55:33.535Z,24064.00
2018-04-15T07:56:54.646Z,21888.00
2018-04-15T07:57:33.554Z,21120.00
2018-04-15T07:58:33.558Z,22080.00
2018-04-15T07:59:33.570Z,20032.00
2018-04-15T08:00:33.572Z,18944.00
2018-04-15T08:01:35.155Z,19776.00
2018-04-15T08:02:33.677Z,22496.00
2018-04-15T08:03:33.598Z,20608.00
2018-04-15T08:04:33.603Z,17696.00
2018-04-15T08:05:33.614Z,19072.00
2018-04-15T08:06:52.146Z,18912.00
2018-04-15T08:07:33.629Z,19232.00
2018-04-15T08:08:33.635Z,18848.00
2018-04-15T08:09:33.639Z,18176.00
2018-04-15T08:10:33.651Z,18176.00
2018-04-15T08:11:37.144Z,18144.00
2018-04-15T08:12:33.669Z,17056.00
2018-04-15T08:13:33.676Z,16356.00
2018-04-15T08:14:33.682Z,15916.00
2018-04-15T08:15:33.695Z,16716.00
2018-04-15T08:18:27.364Z,16456.00
2018-04-15T08:19:05.331Z,15940.00
2018-04-15T08:20:05.343Z,16248.00
2018-04-15T08:21:05.353Z,16408.00
2018-04-15T08:26:44.796Z,18592.00
2018-04-15T08:27:40.380Z,19488.00
2018-04-15T08:28:40.388Z,19136.00
2018-04-15T08:29:40.400Z,19840.00
2018-04-15T08:30:40.404Z,20480.00
2018-04-15T08:31:40.415Z,21120.00
2018-04-15T08:34:15.203Z,22784.00
2018-04-15T08:35:12.008Z,22112.00
2018-04-15T08:36:12.012Z,22400.00
2018-04-15T08:37:13.703Z,23520.00
2018-04-15T08:38:12.416Z,24736.00
2018-04-15T08:39:13.411Z,23904.00
2018-04-15T08:40:12.051Z,25440.00
2018-04-15T08:41:12.064Z,25504.00
2018-04-15T08:42:47.209Z,24800.00
2018-04-15T08:43:12.125Z,25568.00
2018-04-15T08:44:12.096Z,26656.00
2018-04-15T08:45:12.104Z,26656.00
2018-04-15T08:46:12.122Z,27168.00
2018-04-15T08:50:41.470Z,29088.00
2018-04-15T08:51:15.361Z,28064.00
2018-04-15T08:52:15.415Z,27680.00
2018-04-15T08:53:15.651Z,27264.00
2018-04-15T08:54:15.398Z,24832.00
2018-04-15T08:55:15.403Z,22496.00
2018-04-15T08:56:15.415Z,21280.00
2018-04-15T08:57:16.990Z,19456.00
2018-04-15T08:58:15.442Z,19296.00
2018-04-15T08:59:15.457Z,18272.00
2018-04-15T09:00:15.466Z,17612.00
2018-04-15T09:01:15.467Z,19168.00
2018-04-15T09:02:36.530Z,20928.00
2018-04-15T09:03:15.499Z,21632.00
2018-04-15T09:04:15.503Z,21920.00
2018-04-15T09:05:15.520Z,21856.00
2018-04-15T09:06:20.989Z,21440.00
2018-04-15T09:07:15.534Z,22848.00
2018-04-15T09:08:15.548Z,21408.00
2018-04-15T09:09:16.543Z,23104.00
2018-04-15T09:10:15.690Z,23264.00
2018-04-15T09:11:51.001Z,29216.00
2018-04-15T09:12:15.611Z,30528.00
2018-04-15T09:13:15.837Z,27072.00
2018-04-15T09:14:15.627Z,27072.00
2018-04-15T09:15:15.618Z,28800.00
2018-04-15T09:16:16.031Z,28128.00
2018-04-15T09:17:15.684Z,26624.00
2018-04-15T09:18:15.697Z,23712.00
2018-04-15T09:19:17.809Z,25888.00
2018-04-15T09:20:17.469Z,25216.00
2018-04-15T09:21:16.040Z,24128.00
2018-04-15T09:22:15.900Z,27776.00
2018-04-15T09:23:15.819Z,31744.00
2018-04-15T09:24:16.911Z,38304.00
2018-04-15T09:25:17.934Z,39840.00
2018-04-15T09:26:15.862Z,39008.00
2018-04-15T09:27:15.812Z,37888.00
2018-04-15T09:28:15.784Z,34304.00
2018-04-15T09:29:15.796Z,35264.00
2018-04-15T09:30:15.808Z,35520.00
2018-04-15T09:31:16.510Z,36896.00
2018-04-15T09:32:15.836Z,36384.00
2018-04-15T09:33:15.851Z,35776.00
2018-04-15T09:34:15.864Z,36448.00
2018-04-15T09:35:15.894Z,36896.00
2018-04-15T09:36:36.988Z,37760.00
2018-04-15T09:37:15.911Z,38496.00
2018-04-15T09:38:16.179Z,39424.00
2018-04-15T09:39:15.944Z,41664.00
2018-04-15T09:40:24.010Z,44096.00
2018-04-15T09:41:15.978Z,45664.00
2018-04-15T09:42:16.720Z,48352.00
2018-04-15T09:43:16.014Z,45248.00
2018-04-15T09:44:16.636Z,44896.00
2018-04-15T09:45:24.000Z,47328.00
2018-04-15T09:46:16.064Z,46784.00
2018-04-15T09:47:16.079Z,47840.00
2018-04-15T09:48:16.112Z,49536.00
2018-04-15T09:49:16.112Z,49888.00
2018-04-15T09:50:16.564Z,55040.00
2018-04-15T09:51:34.508Z,55392.00
2018-04-15T09:52:16.169Z,58400.00
2018-04-15T09:53:16.188Z,61472.00
2018-04-15T09:54:16.204Z,55968.00
2018-04-15T09:55:16.222Z,61792.00
2018-04-15T09:56:16.542Z,60992.00
2018-04-15T09:57:16.262Z,59936.00
2018-04-15T09:58:16.282Z,54208.00
2018-04-15T09:59:16.322Z,70688.00
2018-04-15T10:00:16.323Z,63104.00
2018-04-15T10:01:16.376Z,42720.00
2018-04-15T10:02:16.355Z,52384.00
2018-04-15T10:03:16.383Z,59456.00
2018-04-15T10:04:16.576Z,62016.00
2018-04-15T10:05:16.408Z,52672.00
2018-04-15T10:06:16.493Z,55232.00
2018-04-15T10:07:16.454Z,62752.00
2018-04-15T10:08:16.478Z,59584.00
2018-04-15T10:09:16.496Z,71712.00
2018-04-15T10:10:16.513Z,73216.00
2018-04-15T10:11:18.519Z,65984.00
2018-04-15T10:12:16.575Z,75168.00
2018-04-15T10:13:16.566Z,84160.00
2018-04-15T10:14:16.582Z,78240.00
2018-04-15T10:15:16.599Z,88448.00
2018-04-15T10:16:17.006Z,107008.00
2018-04-15T10:17:16.636Z,97152.00
2018-04-15T10:18:16.653Z,75776.00
2018-04-15T10:19:16.676Z,76128.00
2018-04-15T10:20:16.708Z,83456.00
2018-04-15T10:21:18.513Z,88416.00
2018-04-15T10:22:16.731Z,89408.00
2018-04-15T10:23:16.752Z,80704.00
2018-04-15T10:24:16.977Z,91264.00
2018-04-15T10:25:16.789Z,93216.00
2018-04-15T10:26:16.845Z,97536.00
2018-04-15T10:28:49.078Z,93216.00
2018-04-15T10:29:48.524Z,102720.00
2018-04-15T10:30:48.540Z,89632.00
2018-04-15T10:31:59.592Z,84320.00
2018-04-15T10:32:48.584Z,76416.00
2018-04-15T10:33:48.597Z,54336.00
2018-04-15T10:34:48.620Z,45376.00
2018-04-15T10:35:48.642Z,41312.00
2018-04-15T10:36:49.104Z,42272.00
2018-04-15T10:37:48.679Z,39584.00
2018-04-15T10:38:48.718Z,37536.00
2018-04-15T10:39:48.715Z,38432.00
2018-04-15T10:40:48.734Z,43168.00
2018-04-15T10:41:49.099Z,49120.00
2018-04-15T10:42:48.771Z,45440.00
2018-04-15T10:43:48.790Z,45280.00
2018-04-15T10:44:48.827Z,53120.00
2018-04-15T10:45:48.811Z,49248.00
2018-04-15T10:46:52.104Z,54464.00
2018-04-15T10:47:48.855Z,53184.00
2018-04-15T10:48:48.942Z,44576.00
2018-04-15T10:49:48.886Z,44352.00
2018-04-15T10:50:48.896Z,42464.00
2018-04-15T10:51:50.616Z,44160.00
2018-04-15T10:52:49.549Z,44800.00
2018-04-15T10:53:48.948Z,45984.00
2018-04-15T10:54:48.963Z,55264.00
2018-04-15T10:55:48.972Z,53504.00
2018-04-15T10:56:49.045Z,52000.00
2018-04-15T10:57:49.005Z,51200.00
2018-04-15T10:58:49.017Z,53088.00
2018-04-15T10:59:49.050Z,67904.00
2018-04-15T11:00:49.046Z,73632.00
2018-04-15T11:01:56.627Z,64512.00
2018-04-15T11:02:49.078Z,86944.00
2018-04-15T11:03:49.090Z,102176.00
2018-04-15T11:04:49.104Z,77760.00
2018-04-15T11:05:49.616Z,59968.00
2018-04-15T11:06:49.622Z,68224.00
2018-04-15T11:07:49.150Z,74304.00
2018-04-15T11:08:49.167Z,75104.00
2018-04-15T11:09:49.179Z,72640.00
2018-04-15T11:10:49.196Z,81344.00
2018-04-15T11:11:51.111Z,72608.00
2018-04-15T11:12:50.067Z,76736.00
2018-04-15T11:13:49.243Z,75360.00
2018-04-15T11:14:49.253Z,82176.00
2018-04-15T11:15:50.067Z,76512.00
2018-04-15T11:16:49.327Z,86496.00
2018-04-15T11:17:49.403Z,80608.00
2018-04-15T11:18:49.316Z,81088.00
2018-04-15T11:19:49.336Z,77824.00
2018-04-15T11:20:49.356Z,82048.00
2018-04-15T11:22:03.622Z,83296.00
2018-04-15T11:22:50.179Z,93952.00
2018-04-15T11:23:49.967Z,93824.00
2018-04-15T11:24:49.430Z,104800.00
2018-04-15T11:25:50.449Z,96448.00
2018-04-15T11:26:49.484Z,84640.00
2018-04-15T11:27:49.481Z,81888.00
2018-04-15T11:28:49.495Z,92128.00
2018-04-15T11:29:49.514Z,97184.00
2018-04-15T11:35:24.854Z,83040.00
2018-04-15T11:36:29.637Z,95104.00
2018-04-15T11:37:26.431Z,100672.00
2018-04-15T11:38:24.604Z,101120.00
2018-04-15T11:39:24.585Z,96864.00
2018-04-15T11:40:24.604Z,102144.00
2018-04-15T11:42:57.421Z,101696.00
2018-04-15T11:43:56.282Z,91744.00
2018-04-15T11:44:56.281Z,95072.00
2018-04-15T11:45:56.418Z,89664.00
2018-04-15T11:46:56.328Z,96320.00
2018-04-15T11:47:56.457Z,74176.00
2018-04-15T11:48:56.374Z,77728.00
2018-04-15T11:49:56.390Z,79136.00
2018-04-15T11:50:56.948Z,75936.00
2018-04-15T11:51:56.453Z,71776.00
2018-04-15T11:52:56.447Z,73824.00
2018-04-15T11:53:56.468Z,83808.00
2018-04-15T11:54:56.491Z,89376.00
2018-04-15T11:55:56.559Z,81408.00
2018-04-15T11:56:56.529Z,78400.00
2018-04-15T11:57:56.557Z,92832.00
2018-04-15T11:58:56.572Z,96448.00
2018-04-15T11:59:56.599Z,82912.00
2018-04-15T12:00:56.660Z,85088.00
2018-04-15T12:01:56.641Z,67744.00
2018-04-15T12:02:56.825Z,70272.00
2018-04-15T12:03:56.697Z,65888.00
2018-04-15T12:04:56.700Z,69376.00
2018-04-15T12:05:57.716Z,74336.00
2018-04-15T12:06:56.754Z,63520.00
2018-04-15T12:07:56.786Z,74816.00
2018-04-15T12:08:56.779Z,71424.00
2018-04-15T12:09:56.805Z,72992.00
2018-04-15T12:10:59.061Z,83424.00
2018-04-15T12:11:56.841Z,80768.00
2018-04-15T12:12:56.855Z,73664.00
2018-04-15T12:13:57.874Z,78720.00
2018-04-15T12:14:56.910Z,83040.00
2018-04-15T12:15:57.037Z,85120.00
2018-04-15T12:16:56.941Z,86368.00
2018-04-15T12:17:56.958Z,90720.00
2018-04-15T12:18:56.985Z,92928.00
2018-04-15T12:19:56.998Z,103712.00
2018-04-15T12:20:57.015Z,97856.00
2018-04-15T12:21:58.926Z,95584.00
2018-04-15T12:22:57.056Z,95392.00
2018-04-15T12:23:57.075Z,102112.00
2018-04-15T12:24:57.095Z,110816.00
2018-04-15T12:25:57.168Z,107392.00
2018-04-15T12:26:57.429Z,104960.00
2018-04-15T12:27:57.157Z,107872.00
2018-04-15T12:28:57.177Z,114496.00
2018-04-15T12:29:57.197Z,115712.00
2018-04-15T12:31:23.766Z,115136.00
2018-04-15T12:31:57.242Z,117408.00
2018-04-15T12:32:57.260Z,112672.00
2018-04-15T12:33:58.079Z,110240.00
2018-04-15T12:34:57.298Z,109536.00
2018-04-15T12:35:58.923Z,107936.00
2018-04-15T12:37:11.416Z,111200.00
2018-04-15T12:37:57.377Z,112800.00
2018-04-15T12:38:57.381Z,108064.00
2018-04-15T12:39:58.384Z,85696.00
2018-04-15T12:40:57.495Z,97728.00
2018-04-15T12:42:02.938Z,106944.00
2018-04-15T12:42:57.471Z,105568.00
2018-04-15T12:43:57.501Z,107616.00
2018-04-15T12:44:58.320Z,104064.00
2018-04-15T12:45:57.541Z,100992.00